sensor_id;sensor_type;location;lat;lon;timestamp;P1;durP1;ratioP1;P2;durP2;ratioP2
77788;SDS011;66980;44.384;0.512;2023-02-12T00:01:35;71.63;;;50.47;;
77788;SDS011;66980;44.384;0.512;2023-02-12T00:04:01;78.35;;;55.78;;
77788;SDS011;66980;44.384;0.512;2023-02-12T00:06:26;70.90;;;50.33;;
77788;SDS011;66980;44.384;0.512;2023-02-12T00:08:52;72.72;;;54.03;;
77788;SDS011;66980;44.384;0.512;2023-02-12T00:11:20;72.20;;;53.25;;
77788;SDS011;66980;44.384;0.512;2023-02-12T00:13:51;71.53;;;53.55;;
77788;SDS011;66980;44.384;0.512;2023-02-12T00:16:22;76.43;;;55.60;;
77788;SDS011;66980;44.384;0.512;2023-02-12T00:18:52;76.78;;;57.03;;
77788;SDS011;66980;44.384;0.512;2023-02-12T00:21:18;74.88;;;52.88;;
77788;SDS011;66980;44.384;0.512;2023-02-12T00:23:44;75.20;;;55.92;;
77788;SDS011;66980;44.384;0.512;2023-02-12T00:26:11;72.00;;;52.25;;
77788;SDS011;66980;44.384;0.512;2023-02-12T00:28:38;73.90;;;53.47;;
77788;SDS011;66980;44.384;0.512;2023-02-12T00:31:07;74.47;;;54.08;;
77788;SDS011;66980;44.384;0.512;2023-02-12T00:33:34;70.82;;;52.78;;
77788;SDS011;66980;44.384;0.512;2023-02-12T00:36:02;73.60;;;53.50;;
77788;SDS011;66980;44.384;0.512;2023-02-12T00:38:27;74.53;;;54.10;;
77788;SDS011;66980;44.384;0.512;2023-02-12T00:40:53;77.03;;;55.00;;
77788;SDS011;66980;44.384;0.512;2023-02-12T00:43:18;74.82;;;54.35;;
77788;SDS011;66980;44.384;0.512;2023-02-12T00:45:44;77.93;;;55.50;;
77788;SDS011;66980;44.384;0.512;2023-02-12T00:48:10;75.38;;;53.75;;
77788;SDS011;66980;44.384;0.512;2023-02-12T00:50:39;76.70;;;53.72;;
77788;SDS011;66980;44.384;0.512;2023-02-12T00:53:07;70.60;;;52.83;;
77788;SDS011;66980;44.384;0.512;2023-02-12T00:55:33;70.57;;;52.65;;
77788;SDS011;66980;44.384;0.512;2023-02-12T00:57:59;71.75;;;53.17;;
77788;SDS011;66980;44.384;0.512;2023-02-12T01:00:25;71.75;;;53.28;;
77788;SDS011;66980;44.384;0.512;2023-02-12T01:02:50;72.38;;;52.72;;
77788;SDS011;66980;44.384;0.512;2023-02-12T01:05:16;70.95;;;51.22;;
77788;SDS011;66980;44.384;0.512;2023-02-12T01:07:43;66.97;;;49.58;;
77788;SDS011;66980;44.384;0.512;2023-02-12T01:10:09;70.60;;;50.60;;
77788;SDS011;66980;44.384;0.512;2023-02-12T01:12:34;71.07;;;50.42;;
77788;SDS011;66980;44.384;0.512;2023-02-12T01:15:00;65.47;;;48.70;;
77788;SDS011;66980;44.384;0.512;2023-02-12T01:17:25;68.60;;;49.55;;
77788;SDS011;66980;44.384;0.512;2023-02-12T01:19:55;69.60;;;50.38;;
77788;SDS011;66980;44.384;0.512;2023-02-12T01:22:21;71.00;;;49.45;;
77788;SDS011;66980;44.384;0.512;2023-02-12T01:24:46;69.00;;;49.13;;
77788;SDS011;66980;44.384;0.512;2023-02-12T01:27:12;64.78;;;48.75;;
77788;SDS011;66980;44.384;0.512;2023-02-12T01:29:37;67.82;;;47.47;;
77788;SDS011;66980;44.384;0.512;2023-02-12T01:32:04;62.40;;;46.33;;
77788;SDS011;66980;44.384;0.512;2023-02-12T01:34:29;65.68;;;46.90;;
77788;SDS011;66980;44.384;0.512;2023-02-12T01:36:55;65.43;;;48.85;;
77788;SDS011;66980;44.384;0.512;2023-02-12T01:39:20;65.13;;;47.05;;
77788;SDS011;66980;44.384;0.512;2023-02-12T01:41:46;65.75;;;47.35;;
77788;SDS011;66980;44.384;0.512;2023-02-12T01:46:42;62.33;;;45.28;;
77788;SDS011;66980;44.384;0.512;2023-02-12T01:49:29;59.42;;;43.60;;
77788;SDS011;66980;44.384;0.512;2023-02-12T01:52:02;62.58;;;44.60;;
77788;SDS011;66980;44.384;0.512;2023-02-12T01:54:32;57.67;;;43.40;;
77788;SDS011;66980;44.384;0.512;2023-02-12T01:56:59;61.10;;;43.88;;
77788;SDS011;66980;44.384;0.512;2023-02-12T01:59:26;61.83;;;44.03;;
77788;SDS011;66980;44.384;0.512;2023-02-12T02:01:53;60.55;;;44.67;;
77788;SDS011;66980;44.384;0.512;2023-02-12T02:04:20;60.47;;;44.13;;
77788;SDS011;66980;44.384;0.512;2023-02-12T02:09:23;56.20;;;40.95;;
77788;SDS011;66980;44.384;0.512;2023-02-12T02:11:50;57.55;;;42.22;;
77788;SDS011;66980;44.384;0.512;2023-02-12T02:14:35;57.47;;;41.45;;
77788;SDS011;66980;44.384;0.512;2023-02-12T02:17:06;56.42;;;40.53;;
77788;SDS011;66980;44.384;0.512;2023-02-12T02:24:55;54.65;;;40.15;;
77788;SDS011;66980;44.384;0.512;2023-02-12T02:41:07;51.33;;;38.47;;
77788;SDS011;66980;44.384;0.512;2023-02-12T02:43:42;48.60;;;35.92;;
77788;SDS011;66980;44.384;0.512;2023-02-12T02:48:49;51.03;;;37.28;;
77788;SDS011;66980;44.384;0.512;2023-02-12T02:51:20;49.72;;;36.70;;
77788;SDS011;66980;44.384;0.512;2023-02-12T02:53:56;49.78;;;36.80;;
77788;SDS011;66980;44.384;0.512;2023-02-12T02:56:28;46.83;;;35.20;;
77788;SDS011;66980;44.384;0.512;2023-02-12T02:58:59;47.97;;;35.78;;
77788;SDS011;66980;44.384;0.512;2023-02-12T03:01:30;45.40;;;34.25;;
77788;SDS011;66980;44.384;0.512;2023-02-12T03:04:14;45.90;;;33.55;;
77788;SDS011;66980;44.384;0.512;2023-02-12T03:06:50;48.83;;;35.20;;
77788;SDS011;66980;44.384;0.512;2023-02-12T03:09:22;48.28;;;34.05;;
77788;SDS011;66980;44.384;0.512;2023-02-12T03:11:53;47.53;;;34.83;;
77788;SDS011;66980;44.384;0.512;2023-02-12T03:14:25;47.58;;;34.15;;
77788;SDS011;66980;44.384;0.512;2023-02-12T03:16:59;45.03;;;32.33;;
77788;SDS011;66980;44.384;0.512;2023-02-12T03:19:28;44.17;;;33.95;;
77788;SDS011;66980;44.384;0.512;2023-02-12T03:22:32;43.22;;;32.63;;
77788;SDS011;66980;44.384;0.512;2023-02-12T03:24:55;44.08;;;32.65;;
77788;SDS011;66980;44.384;0.512;2023-02-12T03:27:26;45.17;;;32.60;;
77788;SDS011;66980;44.384;0.512;2023-02-12T03:29:55;41.70;;;31.52;;
77788;SDS011;66980;44.384;0.512;2023-02-12T03:32:38;43.22;;;32.28;;
77788;SDS011;66980;44.384;0.512;2023-02-12T03:35:20;43.40;;;31.20;;
77788;SDS011;66980;44.384;0.512;2023-02-12T03:37:50;43.33;;;32.00;;
77788;SDS011;66980;44.384;0.512;2023-02-12T03:43:01;41.47;;;30.88;;
77788;SDS011;66980;44.384;0.512;2023-02-12T03:45:54;41.80;;;30.23;;
77788;SDS011;66980;44.384;0.512;2023-02-12T03:48:24;38.05;;;28.23;;
77788;SDS011;66980;44.384;0.512;2023-02-12T03:53:47;40.28;;;29.45;;
77788;SDS011;66980;44.384;0.512;2023-02-12T03:56:17;38.38;;;28.55;;
77788;SDS011;66980;44.384;0.512;2023-02-12T03:58:46;38.33;;;28.13;;
77788;SDS011;66980;44.384;0.512;2023-02-12T04:01:12;35.92;;;27.70;;
77788;SDS011;66980;44.384;0.512;2023-02-12T04:03:38;36.03;;;27.08;;
77788;SDS011;66980;44.384;0.512;2023-02-12T04:06:15;36.55;;;27.42;;
77788;SDS011;66980;44.384;0.512;2023-02-12T04:08:46;35.13;;;26.15;;
77788;SDS011;66980;44.384;0.512;2023-02-12T04:16:39;35.97;;;26.42;;
77788;SDS011;66980;44.384;0.512;2023-02-12T04:19:09;36.40;;;26.42;;
77788;SDS011;66980;44.384;0.512;2023-02-12T04:21:43;35.80;;;25.17;;
77788;SDS011;66980;44.384;0.512;2023-02-12T04:27:31;32.72;;;23.92;;
77788;SDS011;66980;44.384;0.512;2023-02-12T04:32:42;32.90;;;24.48;;
77788;SDS011;66980;44.384;0.512;2023-02-12T04:37:41;32.92;;;24.40;;
77788;SDS011;66980;44.384;0.512;2023-02-12T04:40:11;31.90;;;23.13;;
77788;SDS011;66980;44.384;0.512;2023-02-12T04:42:45;30.10;;;23.02;;
77788;SDS011;66980;44.384;0.512;2023-02-12T04:50:14;31.13;;;21.27;;
77788;SDS011;66980;44.384;0.512;2023-02-12T04:52:40;30.95;;;21.48;;
77788;SDS011;66980;44.384;0.512;2023-02-12T04:55:09;30.75;;;22.48;;
77788;SDS011;66980;44.384;0.512;2023-02-12T04:57:34;30.23;;;22.60;;
77788;SDS011;66980;44.384;0.512;2023-02-12T05:00:00;29.95;;;21.73;;
77788;SDS011;66980;44.384;0.512;2023-02-12T05:02:25;27.73;;;21.05;;
77788;SDS011;66980;44.384;0.512;2023-02-12T05:04:51;27.27;;;20.40;;
77788;SDS011;66980;44.384;0.512;2023-02-12T05:07:16;29.92;;;21.80;;
77788;SDS011;66980;44.384;0.512;2023-02-12T05:09:42;29.10;;;21.42;;
77788;SDS011;66980;44.384;0.512;2023-02-12T05:12:07;26.83;;;20.50;;
77788;SDS011;66980;44.384;0.512;2023-02-12T05:14:33;29.50;;;20.52;;
77788;SDS011;66980;44.384;0.512;2023-02-12T05:16:58;28.38;;;20.63;;
77788;SDS011;66980;44.384;0.512;2023-02-12T05:19:24;26.48;;;20.00;;
77788;SDS011;66980;44.384;0.512;2023-02-12T05:21:50;26.23;;;20.42;;
77788;SDS011;66980;44.384;0.512;2023-02-12T05:24:15;24.90;;;19.17;;
77788;SDS011;66980;44.384;0.512;2023-02-12T05:26:41;25.42;;;19.23;;
77788;SDS011;66980;44.384;0.512;2023-02-12T05:29:07;26.40;;;19.40;;
77788;SDS011;66980;44.384;0.512;2023-02-12T05:31:32;26.90;;;19.52;;
77788;SDS011;66980;44.384;0.512;2023-02-12T05:33:58;24.73;;;18.63;;
77788;SDS011;66980;44.384;0.512;2023-02-12T05:36:24;25.20;;;18.73;;
77788;SDS011;66980;44.384;0.512;2023-02-12T05:38:50;25.75;;;19.02;;
77788;SDS011;66980;44.384;0.512;2023-02-12T05:41:20;23.70;;;17.58;;
77788;SDS011;66980;44.384;0.512;2023-02-12T05:43:47;24.10;;;17.70;;
77788;SDS011;66980;44.384;0.512;2023-02-12T05:46:13;25.60;;;18.38;;
77788;SDS011;66980;44.384;0.512;2023-02-12T05:48:39;23.38;;;18.00;;
77788;SDS011;66980;44.384;0.512;2023-02-12T05:51:06;23.70;;;17.77;;
77788;SDS011;66980;44.384;0.512;2023-02-12T05:53:33;23.25;;;17.55;;
77788;SDS011;66980;44.384;0.512;2023-02-12T05:58:43;21.92;;;16.27;;
77788;SDS011;66980;44.384;0.512;2023-02-12T06:01:11;21.15;;;16.38;;
77788;SDS011;66980;44.384;0.512;2023-02-12T06:03:40;21.25;;;16.77;;
77788;SDS011;66980;44.384;0.512;2023-02-12T06:06:06;22.30;;;16.92;;
77788;SDS011;66980;44.384;0.512;2023-02-12T06:08:32;19.92;;;15.00;;
77788;SDS011;66980;44.384;0.512;2023-02-12T06:11:01;20.00;;;15.23;;
77788;SDS011;66980;44.384;0.512;2023-02-12T06:13:29;21.77;;;16.00;;
77788;SDS011;66980;44.384;0.512;2023-02-12T06:15:55;18.33;;;14.95;;
77788;SDS011;66980;44.384;0.512;2023-02-12T06:18:21;19.50;;;15.20;;
77788;SDS011;66980;44.384;0.512;2023-02-12T06:20:46;19.95;;;14.93;;
77788;SDS011;66980;44.384;0.512;2023-02-12T06:23:12;20.95;;;15.00;;
77788;SDS011;66980;44.384;0.512;2023-02-12T06:25:38;20.35;;;15.48;;
77788;SDS011;66980;44.384;0.512;2023-02-12T06:28:03;19.48;;;14.88;;
77788;SDS011;66980;44.384;0.512;2023-02-12T06:30:29;18.27;;;14.32;;
77788;SDS011;66980;44.384;0.512;2023-02-12T06:32:55;17.95;;;13.27;;
77788;SDS011;66980;44.384;0.512;2023-02-12T06:35:21;18.92;;;13.65;;
77788;SDS011;66980;44.384;0.512;2023-02-12T06:37:47;20.23;;;14.93;;
77788;SDS011;66980;44.384;0.512;2023-02-12T06:40:12;18.40;;;13.85;;
77788;SDS011;66980;44.384;0.512;2023-02-12T06:42:38;18.00;;;13.75;;
77788;SDS011;66980;44.384;0.512;2023-02-12T06:45:03;19.52;;;13.50;;
77788;SDS011;66980;44.384;0.512;2023-02-12T06:47:29;17.25;;;13.25;;
77788;SDS011;66980;44.384;0.512;2023-02-12T06:49:54;19.23;;;14.02;;
77788;SDS011;66980;44.384;0.512;2023-02-12T06:52:20;17.13;;;12.98;;
77788;SDS011;66980;44.384;0.512;2023-02-12T06:54:46;17.75;;;13.38;;
77788;SDS011;66980;44.384;0.512;2023-02-12T06:57:12;16.77;;;13.02;;
77788;SDS011;66980;44.384;0.512;2023-02-12T06:59:37;16.88;;;13.05;;
77788;SDS011;66980;44.384;0.512;2023-02-12T07:02:03;17.88;;;13.27;;
77788;SDS011;66980;44.384;0.512;2023-02-12T07:04:28;18.65;;;13.23;;
77788;SDS011;66980;44.384;0.512;2023-02-12T07:06:54;15.90;;;12.32;;
77788;SDS011;66980;44.384;0.512;2023-02-12T07:09:19;14.75;;;12.35;;
77788;SDS011;66980;44.384;0.512;2023-02-12T07:11:45;14.88;;;11.48;;
77788;SDS011;66980;44.384;0.512;2023-02-12T07:14:12;17.88;;;12.38;;
77788;SDS011;66980;44.384;0.512;2023-02-12T07:16:40;15.20;;;11.23;;
77788;SDS011;66980;44.384;0.512;2023-02-12T07:19:06;16.13;;;12.05;;
77788;SDS011;66980;44.384;0.512;2023-02-12T07:21:32;16.20;;;11.77;;
77788;SDS011;66980;44.384;0.512;2023-02-12T07:23:57;15.85;;;11.70;;
77788;SDS011;66980;44.384;0.512;2023-02-12T07:26:23;14.82;;;10.95;;
77788;SDS011;66980;44.384;0.512;2023-02-12T07:28:49;14.52;;;11.27;;
77788;SDS011;66980;44.384;0.512;2023-02-12T07:31:19;15.02;;;11.20;;
77788;SDS011;66980;44.384;0.512;2023-02-12T07:33:46;14.40;;;11.07;;
77788;SDS011;66980;44.384;0.512;2023-02-12T07:36:13;15.45;;;11.15;;
77788;SDS011;66980;44.384;0.512;2023-02-12T07:38:40;12.85;;;10.77;;
77788;SDS011;66980;44.384;0.512;2023-02-12T07:41:13;15.50;;;11.88;;
77788;SDS011;66980;44.384;0.512;2023-02-12T07:43:40;12.25;;;9.93;;
77788;SDS011;66980;44.384;0.512;2023-02-12T07:46:17;13.45;;;9.93;;
77788;SDS011;66980;44.384;0.512;2023-02-12T07:48:45;13.23;;;10.70;;
77788;SDS011;66980;44.384;0.512;2023-02-12T07:51:12;11.13;;;9.85;;
77788;SDS011;66980;44.384;0.512;2023-02-12T07:53:39;11.95;;;9.88;;
77788;SDS011;66980;44.384;0.512;2023-02-12T07:58:32;15.27;;;11.18;;
77788;SDS011;66980;44.384;0.512;2023-02-12T08:00:57;12.60;;;10.55;;
77788;SDS011;66980;44.384;0.512;2023-02-12T08:03:23;15.60;;;10.50;;
77788;SDS011;66980;44.384;0.512;2023-02-12T08:05:48;15.27;;;11.13;;
77788;SDS011;66980;44.384;0.512;2023-02-12T08:08:13;13.90;;;10.55;;
77788;SDS011;66980;44.384;0.512;2023-02-12T08:10:39;13.15;;;10.60;;
77788;SDS011;66980;44.384;0.512;2023-02-12T08:13:04;17.60;;;11.23;;
77788;SDS011;66980;44.384;0.512;2023-02-12T08:15:30;13.95;;;10.98;;
77788;SDS011;66980;44.384;0.512;2023-02-12T08:17:55;16.80;;;11.10;;
77788;SDS011;66980;44.384;0.512;2023-02-12T08:20:21;14.82;;;10.82;;
77788;SDS011;66980;44.384;0.512;2023-02-12T08:22:46;14.77;;;10.98;;
77788;SDS011;66980;44.384;0.512;2023-02-12T08:25:11;15.85;;;11.45;;
77788;SDS011;66980;44.384;0.512;2023-02-12T08:27:39;14.18;;;10.65;;
77788;SDS011;66980;44.384;0.512;2023-02-12T08:30:05;15.35;;;10.82;;
77788;SDS011;66980;44.384;0.512;2023-02-12T08:32:32;14.80;;;10.77;;
77788;SDS011;66980;44.384;0.512;2023-02-12T08:34:57;13.85;;;10.63;;
77788;SDS011;66980;44.384;0.512;2023-02-12T08:37:23;15.30;;;11.10;;
77788;SDS011;66980;44.384;0.512;2023-02-12T08:39:48;14.25;;;11.00;;
77788;SDS011;66980;44.384;0.512;2023-02-12T08:42:14;15.27;;;10.95;;
77788;SDS011;66980;44.384;0.512;2023-02-12T08:44:40;13.77;;;10.38;;
77788;SDS011;66980;44.384;0.512;2023-02-12T08:47:06;15.65;;;9.85;;
77788;SDS011;66980;44.384;0.512;2023-02-12T08:49:34;14.02;;;9.82;;
77788;SDS011;66980;44.384;0.512;2023-02-12T08:52:00;14.30;;;10.80;;
77788;SDS011;66980;44.384;0.512;2023-02-12T08:54:27;14.02;;;10.32;;
77788;SDS011;66980;44.384;0.512;2023-02-12T08:59:24;15.02;;;9.80;;
77788;SDS011;66980;44.384;0.512;2023-02-12T09:01:50;13.63;;;9.68;;
77788;SDS011;66980;44.384;0.512;2023-02-12T09:04:21;13.23;;;10.27;;
77788;SDS011;66980;44.384;0.512;2023-02-12T09:06:48;13.73;;;10.45;;
77788;SDS011;66980;44.384;0.512;2023-02-12T09:09:14;13.77;;;10.25;;
77788;SDS011;66980;44.384;0.512;2023-02-12T09:11:40;14.23;;;10.48;;
77788;SDS011;66980;44.384;0.512;2023-02-12T09:14:07;14.43;;;10.35;;
77788;SDS011;66980;44.384;0.512;2023-02-12T09:16:35;13.25;;;10.25;;
77788;SDS011;66980;44.384;0.512;2023-02-12T09:19:02;11.57;;;9.57;;
77788;SDS011;66980;44.384;0.512;2023-02-12T09:21:28;12.77;;;9.82;;
77788;SDS011;66980;44.384;0.512;2023-02-12T09:23:53;12.23;;;9.85;;
77788;SDS011;66980;44.384;0.512;2023-02-12T09:26:21;12.15;;;9.40;;
77788;SDS011;66980;44.384;0.512;2023-02-12T09:28:49;12.63;;;9.82;;
77788;SDS011;66980;44.384;0.512;2023-02-12T09:31:18;14.13;;;10.43;;
77788;SDS011;66980;44.384;0.512;2023-02-12T09:33:56;11.70;;;9.20;;
77788;SDS011;66980;44.384;0.512;2023-02-12T09:36:23;10.95;;;9.30;;
77788;SDS011;66980;44.384;0.512;2023-02-12T09:38:49;13.00;;;9.32;;
77788;SDS011;66980;44.384;0.512;2023-02-12T09:44:10;12.85;;;10.00;;
77788;SDS011;66980;44.384;0.512;2023-02-12T09:47:04;13.18;;;9.15;;
77788;SDS011;66980;44.384;0.512;2023-02-12T09:52:21;12.25;;;8.95;;
77788;SDS011;66980;44.384;0.512;2023-02-12T09:54:50;12.82;;;9.25;;
77788;SDS011;66980;44.384;0.512;2023-02-12T09:57:33;10.85;;;8.70;;
77788;SDS011;66980;44.384;0.512;2023-02-12T10:00:07;11.50;;;9.38;;
77788;SDS011;66980;44.384;0.512;2023-02-12T10:02:36;11.77;;;9.65;;
77788;SDS011;66980;44.384;0.512;2023-02-12T10:05:04;12.38;;;9.23;;
77788;SDS011;66980;44.384;0.512;2023-02-12T10:07:39;14.07;;;9.68;;
77788;SDS011;66980;44.384;0.512;2023-02-12T10:10:46;12.75;;;9.25;;
77788;SDS011;66980;44.384;0.512;2023-02-12T10:21:58;10.00;;;8.00;;
77788;SDS011;66980;44.384;0.512;2023-02-12T10:27:10;11.55;;;8.25;;
77788;SDS011;66980;44.384;0.512;2023-02-12T10:29:39;10.80;;;8.68;;
77788;SDS011;66980;44.384;0.512;2023-02-12T10:34:53;9.77;;;8.07;;
77788;SDS011;66980;44.384;0.512;2023-02-12T10:42:48;9.95;;;7.60;;
77788;SDS011;66980;44.384;0.512;2023-02-12T10:45:17;9.77;;;7.53;;
77788;SDS011;66980;44.384;0.512;2023-02-12T10:48:08;9.15;;;7.72;;
77788;SDS011;66980;44.384;0.512;2023-02-12T10:53:07;10.60;;;8.40;;
77788;SDS011;66980;44.384;0.512;2023-02-12T10:55:42;8.65;;;7.72;;
77788;SDS011;66980;44.384;0.512;2023-02-12T10:58:15;9.43;;;7.32;;
77788;SDS011;66980;44.384;0.512;2023-02-12T11:00:57;11.43;;;7.88;;
77788;SDS011;66980;44.384;0.512;2023-02-12T11:03:30;9.93;;;7.93;;
77788;SDS011;66980;44.384;0.512;2023-02-12T11:06:10;9.18;;;7.57;;
77788;SDS011;66980;44.384;0.512;2023-02-12T11:08:49;10.63;;;7.78;;
77788;SDS011;66980;44.384;0.512;2023-02-12T11:13:52;9.73;;;6.95;;
77788;SDS011;66980;44.384;0.512;2023-02-12T11:16:31;11.13;;;7.57;;
77788;SDS011;66980;44.384;0.512;2023-02-12T11:18:59;9.32;;;7.43;;
77788;SDS011;66980;44.384;0.512;2023-02-12T11:21:29;9.27;;;7.13;;
77788;SDS011;66980;44.384;0.512;2023-02-12T11:23:55;9.20;;;6.95;;
77788;SDS011;66980;44.384;0.512;2023-02-12T11:26:28;8.85;;;6.72;;
77788;SDS011;66980;44.384;0.512;2023-02-12T11:29:01;8.05;;;7.10;;
77788;SDS011;66980;44.384;0.512;2023-02-12T11:31:40;9.65;;;7.22;;
77788;SDS011;66980;44.384;0.512;2023-02-12T11:34:07;8.52;;;6.97;;
77788;SDS011;66980;44.384;0.512;2023-02-12T11:36:42;10.95;;;7.40;;
77788;SDS011;66980;44.384;0.512;2023-02-12T11:42:06;8.15;;;6.60;;
77788;SDS011;66980;44.384;0.512;2023-02-12T11:44:49;8.15;;;6.88;;
77788;SDS011;66980;44.384;0.512;2023-02-12T11:47:18;9.35;;;6.60;;
77788;SDS011;66980;44.384;0.512;2023-02-12T11:49:50;22.15;;;8.23;;
77788;SDS011;66980;44.384;0.512;2023-02-12T11:52:20;9.85;;;7.47;;
77788;SDS011;66980;44.384;0.512;2023-02-12T11:54:49;13.88;;;7.30;;
77788;SDS011;66980;44.384;0.512;2023-02-12T12:03:20;42.53;;;24.13;;
77788;SDS011;66980;44.384;0.512;2023-02-12T12:05:53;43.97;;;24.92;;
77788;SDS011;66980;44.384;0.512;2023-02-12T12:08:25;39.10;;;24.02;;
77788;SDS011;66980;44.384;0.512;2023-02-12T12:10:59;41.22;;;23.30;;
77788;SDS011;66980;44.384;0.512;2023-02-12T12:16:41;50.53;;;22.50;;
77788;SDS011;66980;44.384;0.512;2023-02-12T12:19:44;50.42;;;24.20;;
77788;SDS011;66980;44.384;0.512;2023-02-12T12:28:17;40.10;;;22.85;;
77788;SDS011;66980;44.384;0.512;2023-02-12T12:33:33;38.22;;;22.27;;
77788;SDS011;66980;44.384;0.512;2023-02-12T12:41:09;35.25;;;19.75;;
77788;SDS011;66980;44.384;0.512;2023-02-12T12:43:45;37.72;;;21.02;;
77788;SDS011;66980;44.384;0.512;2023-02-12T12:49:25;26.92;;;17.52;;
77788;SDS011;66980;44.384;0.512;2023-02-12T12:55:43;27.75;;;16.00;;
77788;SDS011;66980;44.384;0.512;2023-02-12T13:00:59;22.73;;;15.75;;
77788;SDS011;66980;44.384;0.512;2023-02-12T13:06:09;22.05;;;15.07;;
77788;SDS011;66980;44.384;0.512;2023-02-12T13:22:34;21.75;;;13.13;;
77788;SDS011;66980;44.384;0.512;2023-02-12T13:27:46;18.48;;;12.70;;
77788;SDS011;66980;44.384;0.512;2023-02-12T13:30:24;17.40;;;12.75;;
77788;SDS011;66980;44.384;0.512;2023-02-12T13:33:05;19.45;;;13.35;;
77788;SDS011;66980;44.384;0.512;2023-02-12T13:35:37;15.80;;;11.55;;
77788;SDS011;66980;44.384;0.512;2023-02-12T13:38:07;15.23;;;11.73;;
77788;SDS011;66980;44.384;0.512;2023-02-12T13:40:37;15.60;;;10.43;;
77788;SDS011;66980;44.384;0.512;2023-02-12T13:56:53;13.65;;;10.38;;
77788;SDS011;66980;44.384;0.512;2023-02-12T14:04:38;11.60;;;9.50;;
77788;SDS011;66980;44.384;0.512;2023-02-12T14:07:12;11.77;;;8.95;;
77788;SDS011;66980;44.384;0.512;2023-02-12T14:14:54;10.60;;;8.70;;
77788;SDS011;66980;44.384;0.512;2023-02-12T14:19:54;12.25;;;8.43;;
77788;SDS011;66980;44.384;0.512;2023-02-12T14:27:49;10.65;;;8.43;;
77788;SDS011;66980;44.384;0.512;2023-02-12T14:37:51;11.30;;;7.97;;
77788;SDS011;66980;44.384;0.512;2023-02-12T14:43:02;10.10;;;7.22;;
77788;SDS011;66980;44.384;0.512;2023-02-12T14:45:30;8.40;;;7.47;;
77788;SDS011;66980;44.384;0.512;2023-02-12T14:48:00;9.43;;;7.38;;
77788;SDS011;66980;44.384;0.512;2023-02-12T14:50:29;8.25;;;7.13;;
77788;SDS011;66980;44.384;0.512;2023-02-12T14:55:58;9.77;;;7.32;;
77788;SDS011;66980;44.384;0.512;2023-02-12T14:58:24;10.05;;;7.82;;
77788;SDS011;66980;44.384;0.512;2023-02-12T15:00:53;8.95;;;6.95;;
77788;SDS011;66980;44.384;0.512;2023-02-12T15:06:14;7.07;;;5.85;;
77788;SDS011;66980;44.384;0.512;2023-02-12T15:08:43;9.02;;;6.68;;
77788;SDS011;66980;44.384;0.512;2023-02-12T15:16:48;7.55;;;6.75;;
77788;SDS011;66980;44.384;0.512;2023-02-12T15:27:53;7.55;;;6.35;;
77788;SDS011;66980;44.384;0.512;2023-02-12T15:30:23;7.07;;;6.38;;
77788;SDS011;66980;44.384;0.512;2023-02-12T15:32:50;7.68;;;6.90;;
77788;SDS011;66980;44.384;0.512;2023-02-12T15:35:26;7.50;;;6.00;;
77788;SDS011;66980;44.384;0.512;2023-02-12T15:37:54;6.90;;;6.13;;
77788;SDS011;66980;44.384;0.512;2023-02-12T15:40:21;6.80;;;6.10;;
77788;SDS011;66980;44.384;0.512;2023-02-12T15:42:55;7.07;;;6.32;;
77788;SDS011;66980;44.384;0.512;2023-02-12T15:45:23;8.38;;;6.57;;
77788;SDS011;66980;44.384;0.512;2023-02-12T15:47:54;6.72;;;5.88;;
77788;SDS011;66980;44.384;0.512;2023-02-12T15:50:24;7.93;;;6.70;;
77788;SDS011;66980;44.384;0.512;2023-02-12T15:52:50;6.90;;;5.93;;
77788;SDS011;66980;44.384;0.512;2023-02-12T15:55:20;7.80;;;6.00;;
77788;SDS011;66980;44.384;0.512;2023-02-12T15:57:49;7.07;;;5.95;;
77788;SDS011;66980;44.384;0.512;2023-02-12T16:05:54;5.90;;;5.38;;
77788;SDS011;66980;44.384;0.512;2023-02-12T16:08:22;6.78;;;5.72;;
77788;SDS011;66980;44.384;0.512;2023-02-12T16:10:48;5.63;;;5.10;;
77788;SDS011;66980;44.384;0.512;2023-02-12T16:13:32;6.25;;;5.65;;
77788;SDS011;66980;44.384;0.512;2023-02-12T16:18:37;6.35;;;5.75;;
77788;SDS011;66980;44.384;0.512;2023-02-12T16:21:16;6.93;;;6.22;;
77788;SDS011;66980;44.384;0.512;2023-02-12T16:23:44;7.75;;;5.93;;
77788;SDS011;66980;44.384;0.512;2023-02-12T16:26:24;6.30;;;5.60;;
77788;SDS011;66980;44.384;0.512;2023-02-12T16:28:54;6.43;;;5.78;;
77788;SDS011;66980;44.384;0.512;2023-02-12T16:31:21;6.30;;;5.70;;
77788;SDS011;66980;44.384;0.512;2023-02-12T16:33:50;8.25;;;6.20;;
77788;SDS011;66980;44.384;0.512;2023-02-12T16:39:07;7.57;;;6.55;;
77788;SDS011;66980;44.384;0.512;2023-02-12T16:41:57;6.35;;;5.20;;
77788;SDS011;66980;44.384;0.512;2023-02-12T16:44:26;6.53;;;5.47;;
77788;SDS011;66980;44.384;0.512;2023-02-12T16:46:56;6.63;;;5.97;;
77788;SDS011;66980;44.384;0.512;2023-02-12T16:49:24;6.28;;;5.18;;
77788;SDS011;66980;44.384;0.512;2023-02-12T16:51:50;6.05;;;5.53;;
77788;SDS011;66980;44.384;0.512;2023-02-12T16:54:29;5.93;;;5.38;;
77788;SDS011;66980;44.384;0.512;2023-02-12T16:56:56;6.15;;;5.55;;
77788;SDS011;66980;44.384;0.512;2023-02-12T16:59:22;6.20;;;5.60;;
77788;SDS011;66980;44.384;0.512;2023-02-12T17:02:01;7.78;;;6.18;;
77788;SDS011;66980;44.384;0.512;2023-02-12T17:04:29;7.15;;;5.90;;
77788;SDS011;66980;44.384;0.512;2023-02-12T17:06:55;5.72;;;5.22;;
77788;SDS011;66980;44.384;0.512;2023-02-12T17:09:25;6.85;;;5.72;;
77788;SDS011;66980;44.384;0.512;2023-02-12T17:11:50;6.28;;;5.50;;
77788;SDS011;66980;44.384;0.512;2023-02-12T17:14:17;5.97;;;5.38;;
77788;SDS011;66980;44.384;0.512;2023-02-12T17:16:44;5.82;;;5.30;;
77788;SDS011;66980;44.384;0.512;2023-02-12T17:19:10;5.60;;;5.10;;
77788;SDS011;66980;44.384;0.512;2023-02-12T17:21:37;6.28;;;5.68;;
77788;SDS011;66980;44.384;0.512;2023-02-12T17:24:06;5.55;;;5.05;;
77788;SDS011;66980;44.384;0.512;2023-02-12T17:26:43;5.78;;;5.22;;
77788;SDS011;66980;44.384;0.512;2023-02-12T17:29:09;5.75;;;5.15;;
77788;SDS011;66980;44.384;0.512;2023-02-12T17:31:35;5.50;;;4.90;;
77788;SDS011;66980;44.384;0.512;2023-02-12T17:34:01;5.75;;;5.25;;
77788;SDS011;66980;44.384;0.512;2023-02-12T17:36:27;5.25;;;4.70;;
77788;SDS011;66980;44.384;0.512;2023-02-12T17:38:53;5.57;;;5.03;;
77788;SDS011;66980;44.384;0.512;2023-02-12T17:41:18;7.22;;;5.07;;
77788;SDS011;66980;44.384;0.512;2023-02-12T17:43:44;9.68;;;6.18;;
77788;SDS011;66980;44.384;0.512;2023-02-12T17:46:18;13.43;;;6.45;;
77788;SDS011;66980;44.384;0.512;2023-02-12T17:48:45;10.95;;;6.30;;
77788;SDS011;66980;44.384;0.512;2023-02-12T17:51:10;38.25;;;22.00;;
77788;SDS011;66980;44.384;0.512;2023-02-12T17:53:37;33.78;;;19.10;;
77788;SDS011;66980;44.384;0.512;2023-02-12T17:56:04;33.45;;;19.63;;
77788;SDS011;66980;44.384;0.512;2023-02-12T17:58:33;63.28;;;39.83;;
77788;SDS011;66980;44.384;0.512;2023-02-12T18:01:02;32.10;;;20.27;;
77788;SDS011;66980;44.384;0.512;2023-02-12T18:03:34;29.95;;;17.23;;
77788;SDS011;66980;44.384;0.512;2023-02-12T18:05:59;39.85;;;18.27;;
77788;SDS011;66980;44.384;0.512;2023-02-12T18:08:25;30.40;;;17.88;;
77788;SDS011;66980;44.384;0.512;2023-02-12T18:10:52;33.08;;;17.77;;
77788;SDS011;66980;44.384;0.512;2023-02-12T18:13:17;27.48;;;15.70;;
77788;SDS011;66980;44.384;0.512;2023-02-12T18:15:43;30.65;;;15.32;;
77788;SDS011;66980;44.384;0.512;2023-02-12T18:18:08;39.58;;;15.45;;